メインページ
METAR-TAF:

METAR-TAF

空港 :

ハルビン, 中華人民共和国

ハルビン太平国際空港

緯度: 45-45N, 経度: 126-46E, 海抜: 143m

現時点の気象観測

当レポートは1時間4分前の20:00(UTC)に作成
西/南西の風 2kt
気温 -3°C
湿度 93%
気圧 1022 hPa
視程10km以上
1,500メートル以下は雲なし、積乱雲なし

METAR: ZYHB 292000Z 25001MPS CAVOK M03/M04 Q1022 NOSIG

時間: 05:04 (21:04 UTC)

予報

当レポートは5時間53分前の15:11(UTC)に作成
予報は29日の 18時(UTC)から 30日の 18時(UTC)まで有効
の風 8kt、最大19ktの突風を伴う
視程: 6000m
高度2600ftの雲は散在している

TAF: ZYHB 291511Z 2918/3018 35004G10MPS 6000 SCT026 TX09/3006Z TNM03/21Z

4,000以上の空港の気象観測と天気予報(METAR報とTAF報)

利用可能な観測所は地図上に黄色い丸と赤い丸で示す。

丸の上にカーソルを重ねると観測所名を参照できる。

次にクリックすると気象観測と天気予報を参照できる。

マップの切り替え:黒色「×」印の緑ボタンをクリックして拡大、「-」印の緑ボタンをクリックして縮小、緑色の三角印をクリックして隣りの地図に切り替え


METAR-TAF: